Laceyville, Pennsylvania
Current Conditions -  °F | °C
As of 11:54 AM on Monday 22 Dec 2014 (Local Time) from KAVP Reporting Station
Overcast Overcast  
Wind Chill: 34°   Ceiling: 2300
Heat Index: 40°   Visibility: 10mi
Dew Point: 28°   Wind: 8mph
Humidity: 63%   Direction: 150°SSE
Pressure: 30.22"   Gusts: NA
Location:  41.65°N, 76.16°W
Report Text: KAVP 221654Z AUTO 15007KT 110V180 10SM OVC023 04/M02 A3022 RMK AO2 SLP239 T00441022
Loading
Personal Weather Stations






























Interactive Weather Map New forecast layout! Learn more

10-Day Weather Forecast

Advertisements
Track Severe Weather on mobile